Аэропорт: Гянджа. Гянджа

ICAO: UBBG

METAR:
2020-10-23 10:00:00
UBBG 231000Z 36004KT 9999 FEW100 20/11 Q1023 R30/CLRD// NOSIG
METAR:
2020-10-22 23:00:00
TAF UBBG 222300Z 2300/2324 VRB04KT 9999 SCT040 BKN080 TX20/2312Z TN12/2302Z TEMPO 2306/2309 03008KT BECMG 2309/2311 08010KT